Toyomasa Maru — JJ3927 — position and weather

sailwx.info

Track history (hours):
 
Tides and Currents Weather Stations Pressure Air Temp Water Temp Dewpoint Dewpoint Depression Visibility Wind Speed Wind Dir Waves Ship Positions

Toyomasa Maru

Last reported at 2014-Aug-08 19:09 UTC. Time now 2014-Aug-28 15:25 UTC.
Position N 35°38' E 140°57'.
Warning: this ship's position is 19 days out of date.

Length 101 m; draft 6.7 m.

Type: Tanker. MMSI: 431300401.

Date/timePositionNaut miles runAvg speedWind from/ knotsBaromVisibWave heightAir tempDewpointWater temp
2014-Aug-08 19:09N 35°38' E 140°57'3312.5
2014-Aug-08 16:30N 35°10' E 140°33'1815.4
2014-Aug-08 15:22N 35°00' E 140°16'1315.6
2014-Aug-08 14:31N 34°54' E 140°02'1312.2
2014-Aug-08 13:29N 34°53' E 139°47'1011.1
2014-Aug-08 12:33N 35°03' E 139°43'1313.2
2014-Aug-08 11:33N 35°16' E 139°46'1111.2
2014-Aug-08 10:33N 35°27' E 139°47'3 3.1
2014-Aug-08 09:32N 35°30' E 139°45'0 0.0
2014-Aug-08 08:23N 35°30' E 139°45'0 0.0
2014-Aug-08 07:32N 35°30' E 139°45'0 0.0
2014-Aug-08 06:32N 35°30' E 139°45'0 0.0
2014-Aug-08 05:32N 35°30' E 139°45'3 2.9
2014-Aug-08 04:34N 35°29' E 139°42'5 5.3
2014-Aug-08 03:33N 35°24' E 139°45'0 0.1
2014-Aug-08 02:33N 35°24' E 139°45'1110.9
2014-Aug-08 01:33N 35°13' E 139°47'1413.5
2014-Aug-08 00:33N 35°00' E 139°43'1310.3
2014-Aug-07 23:16N 34°52' E 139°57'710.3
2014-Aug-07 22:33N 34°56' E 140°04'1211.0
2014-Aug-07 21:31N 35°01' E 140°17'1210.9
2014-Aug-07 20:22N 35°07' E 140°30'1612.4
2014-Aug-07 19:06N 35°20' E 140°41'813.7
2014-Aug-07 18:33N 35°26' E 140°46'1313.3
2014-Aug-07 17:34N 35°37' E 140°56'1413.7
2014-Aug-07 16:31N 35°51' E 140°60'1514.0
2014-Aug-07 15:25N 36°06' E 141°02'  
2014-Aug-04 12:20N 34°58' E 140°13'1414.9
2014-Aug-04 11:22N 34°51' E 139°58'1012.3
2014-Aug-04 10:33N 34°55' E 139°46'1212.4
2014-Aug-04 09:33N 35°07' E 139°45'1211.8
2014-Aug-04 08:33N 35°19' E 139°44'1010.4
2014-Aug-04 07:33N 35°28' E 139°49'10 9.8
2014-Aug-04 06:33N 35°28' E 140°01'0 0.0
2014-Aug-04 05:31N 35°28' E 140°01'0 0.0
2014-Aug-04 04:28N 35°28' E 140°01'0 0.0
2014-Aug-04 03:16N 35°28' E 140°01'0 0.0
2014-Aug-04 02:28N 35°28' E 140°01'0 0.0
2014-Aug-04 01:31N 35°28' E 140°01'0 0.1
2014-Aug-04 00:33N 35°28' E 140°01'5 5.2
2014-Aug-03 23:33N 35°30' E 139°55'0 0.0
2014-Aug-03 22:28N 35°30' E 139°55'0 0.1
2014-Aug-03 21:31N 35°30' E 139°55'1111.3
2014-Aug-03 20:33N 35°22' E 139°46'1212.1
2014-Aug-03 19:34N 35°10' E 139°47'1313.4
2014-Aug-03 18:33N 34°59' E 139°37'16 0.4
2014-Aug-01 22:27N 34°46' E 139°47'1212.6
2014-Aug-01 21:29N 34°52' E 139°60'1112.1
2014-Aug-01 20:33N 34°58' E 140°12'2411.7
2014-Aug-01 18:30N 35°13' E 140°35'1211.4
2014-Aug-01 17:29N 35°23' E 140°43'1212.7
2014-Aug-01 16:30N 35°32' E 140°52'2512.7
2014-Aug-01 14:31N 35°57' E 141°01'1313.7
2014-Aug-01 13:32N 36°10' E 141°02'81 2.0
2014-Jul-30 20:32N 35°00' E 140°13'1413.9
2014-Jul-30 19:31N 34°53' E 139°58'1210.0
2014-Jul-30 18:21N 34°56' E 139°44'911.4
2014-Jul-30 17:33N 35°05' E 139°42'1211.8
2014-Jul-30 16:33N 35°17' E 139°45'1010.2
2014-Jul-30 15:33N 35°27' E 139°48'1110.8
2014-Jul-30 14:33N 35°29' E 140°01'0 0.1
2014-Jul-30 13:33N 35°29' E 140°01'0 0.0
2014-Jul-30 12:22N 35°29' E 140°01'0 0.0
2014-Jul-30 11:28N 35°29' E 140°01'0 0.0
2014-Jul-30 10:31N 35°29' E 140°01'0 0.0
2014-Jul-30 09:31N 35°29' E 140°01'0 0.0
2014-Jul-30 08:31N 35°29' E 140°01'4 4.2
2014-Jul-30 07:33N 35°29' E 139°56'0 0.0
2014-Jul-30 06:33N 35°29' E 139°56'0 0.0
2014-Jul-30 05:33N 35°29' E 139°56'0 0.1
2014-Jul-30 04:33N 35°29' E 139°56'3 3.4
2014-Jul-30 03:32N 35°28' E 139°60'0 0.0
2014-Jul-30 02:32N 35°28' E 139°60'0 0.0
2014-Jul-30 01:32N 35°28' E 139°60'0 0.0
2014-Jul-30 00:32N 35°28' E 139°60'0 0.0
2014-Jul-29 23:33N 35°28' E 139°60'4 4.4
2014-Jul-29 22:33N 35°30' E 139°55'0 0.0
2014-Jul-29 21:29N 35°30' E 139°55'0 0.0
2014-Jul-29 20:32N 35°30' E 139°55'0 0.1
2014-Jul-29 19:33N 35°30' E 139°55'  
Track history (hours):
 
Tides and Currents Weather Stations Pressure Air Temp Water Temp Dewpoint Dewpoint Depression Visibility Wind Speed Wind Dir Waves Ship Positions

Toyomasa Maru

Last reported at 2014-Aug-08 19:09 UTC. Time now 2014-Aug-28 15:25 UTC.
Position N 35°38' E 140°57'.
Warning: this ship's position is 19 days out of date.

Length 101 m; draft 6.7 m.

Type: Tanker. MMSI: 431300401.

Date/timePositionNaut miles runAvg speedWind from/ knotsBaromVisibWave heightAir tempDewpointWater temp
2014-Aug-08 19:09N 35°38' E 140°57'3312.5
2014-Aug-08 16:30N 35°10' E 140°33'1815.4
2014-Aug-08 15:22N 35°00' E 140°16'1315.6
2014-Aug-08 14:31N 34°54' E 140°02'1312.2
2014-Aug-08 13:29N 34°53' E 139°47'1011.1
2014-Aug-08 12:33N 35°03' E 139°43'1313.2
2014-Aug-08 11:33N 35°16' E 139°46'1111.2
2014-Aug-08 10:33N 35°27' E 139°47'3 3.1
2014-Aug-08 09:32N 35°30' E 139°45'0 0.0
2014-Aug-08 08:23N 35°30' E 139°45'0 0.0
2014-Aug-08 07:32N 35°30' E 139°45'0 0.0
2014-Aug-08 06:32N 35°30' E 139°45'0 0.0
2014-Aug-08 05:32N 35°30' E 139°45'3 2.9
2014-Aug-08 04:34N 35°29' E 139°42'5 5.3
2014-Aug-08 03:33N 35°24' E 139°45'0 0.1
2014-Aug-08 02:33N 35°24' E 139°45'1110.9
2014-Aug-08 01:33N 35°13' E 139°47'1413.5
2014-Aug-08 00:33N 35°00' E 139°43'1310.3
2014-Aug-07 23:16N 34°52' E 139°57'710.3
2014-Aug-07 22:33N 34°56' E 140°04'1211.0
2014-Aug-07 21:31N 35°01' E 140°17'1210.9
2014-Aug-07 20:22N 35°07' E 140°30'1612.4
2014-Aug-07 19:06N 35°20' E 140°41'813.7
2014-Aug-07 18:33N 35°26' E 140°46'1313.3
2014-Aug-07 17:34N 35°37' E 140°56'1413.7
2014-Aug-07 16:31N 35°51' E 140°60'1514.0
2014-Aug-07 15:25N 36°06' E 141°02'  
2014-Aug-04 12:20N 34°58' E 140°13'1414.9
2014-Aug-04 11:22N 34°51' E 139°58'1012.3
2014-Aug-04 10:33N 34°55' E 139°46'1212.4
2014-Aug-04 09:33N 35°07' E 139°45'1211.8
2014-Aug-04 08:33N 35°19' E 139°44'1010.4
2014-Aug-04 07:33N 35°28' E 139°49'10 9.8
2014-Aug-04 06:33N 35°28' E 140°01'0 0.0
2014-Aug-04 05:31N 35°28' E 140°01'0 0.0
2014-Aug-04 04:28N 35°28' E 140°01'0 0.0
2014-Aug-04 03:16N 35°28' E 140°01'0 0.0
2014-Aug-04 02:28N 35°28' E 140°01'0 0.0
2014-Aug-04 01:31N 35°28' E 140°01'0 0.1
2014-Aug-04 00:33N 35°28' E 140°01'5 5.2
2014-Aug-03 23:33N 35°30' E 139°55'0 0.0
2014-Aug-03 22:28N 35°30' E 139°55'0 0.1
2014-Aug-03 21:31N 35°30' E 139°55'1111.3
2014-Aug-03 20:33N 35°22' E 139°46'1212.1
2014-Aug-03 19:34N 35°10' E 139°47'1313.4
2014-Aug-03 18:33N 34°59' E 139°37'16 0.4
2014-Aug-01 22:27N 34°46' E 139°47'1212.6
2014-Aug-01 21:29N 34°52' E 139°60'1112.1
2014-Aug-01 20:33N 34°58' E 140°12'2411.7
2014-Aug-01 18:30N 35°13' E 140°35'1211.4
2014-Aug-01 17:29N 35°23' E 140°43'1212.7
2014-Aug-01 16:30N 35°32' E 140°52'2512.7
2014-Aug-01 14:31N 35°57' E 141°01'1313.7
2014-Aug-01 13:32N 36°10' E 141°02'81 2.0
2014-Jul-30 20:32N 35°00' E 140°13'1413.9
2014-Jul-30 19:31N 34°53' E 139°58'1210.0
2014-Jul-30 18:21N 34°56' E 139°44'911.4
2014-Jul-30 17:33N 35°05' E 139°42'1211.8
2014-Jul-30 16:33N 35°17' E 139°45'1010.2
2014-Jul-30 15:33N 35°27' E 139°48'1110.8
2014-Jul-30 14:33N 35°29' E 140°01'0 0.1
2014-Jul-30 13:33N 35°29' E 140°01'0 0.0
2014-Jul-30 12:22N 35°29' E 140°01'0 0.0
2014-Jul-30 11:28N 35°29' E 140°01'0 0.0
2014-Jul-30 10:31N 35°29' E 140°01'0 0.0
2014-Jul-30 09:31N 35°29' E 140°01'0 0.0
2014-Jul-30 08:31N 35°29' E 140°01'4 4.2
2014-Jul-30 07:33N 35°29' E 139°56'0 0.0
2014-Jul-30 06:33N 35°29' E 139°56'0 0.0
2014-Jul-30 05:33N 35°29' E 139°56'0 0.1
2014-Jul-30 04:33N 35°29' E 139°56'3 3.4
2014-Jul-30 03:32N 35°28' E 139°60'0 0.0
2014-Jul-30 02:32N 35°28' E 139°60'0 0.0
2014-Jul-30 01:32N 35°28' E 139°60'0 0.0
2014-Jul-30 00:32N 35°28' E 139°60'0 0.0
2014-Jul-29 23:33N 35°28' E 139°60'4 4.4
2014-Jul-29 22:33N 35°30' E 139°55'0 0.0
2014-Jul-29 21:29N 35°30' E 139°55'0 0.0
2014-Jul-29 20:32N 35°30' E 139°55'0 0.1
2014-Jul-29 19:33N 35°30' E 139°55'  

Dump ship's entire track history